sensor_id;sensor_type;location;lat;lon;timestamp;P1;durP1;ratioP1;P2;durP2;ratioP2
6392;SDS011;3229;42.674;23.282;2023-11-19T00:02:26;2.67;;;2.37;;
6392;SDS011;3229;42.674;23.282;2023-11-19T00:04:53;2.47;;;2.27;;
6392;SDS011;3229;42.674;23.282;2023-11-19T00:07:19;2.53;;;2.33;;
6392;SDS011;3229;42.674;23.282;2023-11-19T00:09:46;2.70;;;2.50;;
6392;SDS011;3229;42.674;23.282;2023-11-19T00:12:13;2.40;;;2.30;;
6392;SDS011;3229;42.674;23.282;2023-11-19T00:14:40;2.60;;;2.40;;
6392;SDS011;3229;42.674;23.282;2023-11-19T00:17:07;2.63;;;2.43;;
6392;SDS011;3229;42.674;23.282;2023-11-19T00:19:36;2.30;;;2.20;;
6392;SDS011;3229;42.674;23.282;2023-11-19T00:22:03;2.63;;;2.43;;
6392;SDS011;3229;42.674;23.282;2023-11-19T00:24:30;2.90;;;2.70;;
6392;SDS011;3229;42.674;23.282;2023-11-19T00:26:57;2.80;;;2.60;;
6392;SDS011;3229;42.674;23.282;2023-11-19T00:29:23;2.63;;;2.43;;
6392;SDS011;3229;42.674;23.282;2023-11-19T00:31:50;2.63;;;2.43;;
6392;SDS011;3229;42.674;23.282;2023-11-19T00:34:17;2.93;;;2.73;;
6392;SDS011;3229;42.674;23.282;2023-11-19T00:36:49;2.70;;;2.50;;
6392;SDS011;3229;42.674;23.282;2023-11-19T00:39:15;2.83;;;2.63;;
6392;SDS011;3229;42.674;23.282;2023-11-19T00:41:45;2.70;;;2.50;;
6392;SDS011;3229;42.674;23.282;2023-11-19T00:44:12;3.37;;;2.67;;
6392;SDS011;3229;42.674;23.282;2023-11-19T00:46:39;3.00;;;2.70;;
6392;SDS011;3229;42.674;23.282;2023-11-19T00:49:06;3.13;;;2.83;;
6392;SDS011;3229;42.674;23.282;2023-11-19T00:51:33;2.70;;;2.50;;
6392;SDS011;3229;42.674;23.282;2023-11-19T00:54:01;2.50;;;2.30;;
6392;SDS011;3229;42.674;23.282;2023-11-19T00:56:27;3.27;;;2.57;;
6392;SDS011;3229;42.674;23.282;2023-11-19T00:58:54;2.77;;;2.57;;
6392;SDS011;3229;42.674;23.282;2023-11-19T01:01:22;2.80;;;2.60;;
6392;SDS011;3229;42.674;23.282;2023-11-19T01:03:49;2.80;;;2.60;;
6392;SDS011;3229;42.674;23.282;2023-11-19T01:06:26;2.97;;;2.60;;
6392;SDS011;3229;42.674;23.282;2023-11-19T01:08:53;3.77;;;2.60;;
6392;SDS011;3229;42.674;23.282;2023-11-19T01:11:23;2.73;;;2.53;;
6392;SDS011;3229;42.674;23.282;2023-11-19T01:13:51;2.97;;;2.60;;
6392;SDS011;3229;42.674;23.282;2023-11-19T01:16:18;3.00;;;2.70;;
6392;SDS011;3229;42.674;23.282;2023-11-19T01:18:46;2.73;;;2.50;;
6392;SDS011;3229;42.674;23.282;2023-11-19T01:21:13;2.67;;;2.50;;
6392;SDS011;3229;42.674;23.282;2023-11-19T01:23:40;2.40;;;2.30;;
6392;SDS011;3229;42.674;23.282;2023-11-19T01:26:08;2.60;;;2.40;;
6392;SDS011;3229;42.674;23.282;2023-11-19T01:28:38;3.10;;;2.80;;
6392;SDS011;3229;42.674;23.282;2023-11-19T01:31:10;3.00;;;2.70;;
6392;SDS011;3229;42.674;23.282;2023-11-19T01:33:37;2.40;;;2.20;;
6392;SDS011;3229;42.674;23.282;2023-11-19T01:36:05;2.90;;;2.70;;
6392;SDS011;3229;42.674;23.282;2023-11-19T01:38:33;2.63;;;2.43;;
6392;SDS011;3229;42.674;23.282;2023-11-19T01:41:00;2.90;;;2.40;;
6392;SDS011;3229;42.674;23.282;2023-11-19T01:43:31;2.63;;;2.53;;
6392;SDS011;3229;42.674;23.282;2023-11-19T01:46:00;2.70;;;2.50;;
6392;SDS011;3229;42.674;23.282;2023-11-19T01:48:27;2.80;;;2.60;;
6392;SDS011;3229;42.674;23.282;2023-11-19T01:50:54;2.33;;;2.23;;
6392;SDS011;3229;42.674;23.282;2023-11-19T01:53:22;2.73;;;2.50;;
6392;SDS011;3229;42.674;23.282;2023-11-19T01:55:49;3.07;;;2.57;;
6392;SDS011;3229;42.674;23.282;2023-11-19T01:58:17;2.93;;;2.63;;
6392;SDS011;3229;42.674;23.282;2023-11-19T02:00:44;2.57;;;2.37;;
6392;SDS011;3229;42.674;23.282;2023-11-19T02:03:13;2.80;;;2.60;;
6392;SDS011;3229;42.674;23.282;2023-11-19T02:05:41;2.50;;;2.30;;
6392;SDS011;3229;42.674;23.282;2023-11-19T02:08:08;4.00;;;2.60;;
6392;SDS011;3229;42.674;23.282;2023-11-19T02:10:35;2.60;;;2.40;;
6392;SDS011;3229;42.674;23.282;2023-11-19T02:13:02;2.63;;;2.43;;
6392;SDS011;3229;42.674;23.282;2023-11-19T02:15:31;2.47;;;2.27;;
6392;SDS011;3229;42.674;23.282;2023-11-19T02:20:48;2.50;;;2.30;;
6392;SDS011;3229;42.674;23.282;2023-11-19T02:23:15;2.53;;;2.33;;
6392;SDS011;3229;42.674;23.282;2023-11-19T02:25:45;2.40;;;2.23;;
6392;SDS011;3229;42.674;23.282;2023-11-19T02:28:19;2.40;;;2.27;;
6392;SDS011;3229;42.674;23.282;2023-11-19T02:30:46;3.10;;;2.80;;
6392;SDS011;3229;42.674;23.282;2023-11-19T02:33:13;2.07;;;1.97;;
6392;SDS011;3229;42.674;23.282;2023-11-19T02:35:40;2.60;;;2.40;;
6392;SDS011;3229;42.674;23.282;2023-11-19T02:38:07;3.70;;;2.63;;
6392;SDS011;3229;42.674;23.282;2023-11-19T02:40:34;2.60;;;2.40;;
6392;SDS011;3229;42.674;23.282;2023-11-19T02:43:00;2.70;;;2.50;;
6392;SDS011;3229;42.674;23.282;2023-11-19T02:45:31;3.47;;;2.30;;
6392;SDS011;3229;42.674;23.282;2023-11-19T02:47:58;2.60;;;2.40;;
6392;SDS011;3229;42.674;23.282;2023-11-19T02:50:27;2.50;;;2.30;;
6392;SDS011;3229;42.674;23.282;2023-11-19T02:52:54;2.50;;;2.27;;
6392;SDS011;3229;42.674;23.282;2023-11-19T02:55:22;2.70;;;2.50;;
6392;SDS011;3229;42.674;23.282;2023-11-19T02:57:50;2.70;;;2.50;;
6392;SDS011;3229;42.674;23.282;2023-11-19T03:00:19;2.77;;;2.57;;
6392;SDS011;3229;42.674;23.282;2023-11-19T03:02:50;5.10;;;2.70;;
6392;SDS011;3229;42.674;23.282;2023-11-19T03:05:24;2.47;;;2.20;;
6392;SDS011;3229;42.674;23.282;2023-11-19T03:07:55;2.37;;;2.23;;
6392;SDS011;3229;42.674;23.282;2023-11-19T03:10:22;2.47;;;2.27;;
6392;SDS011;3229;42.674;23.282;2023-11-19T03:12:49;3.00;;;2.40;;
6392;SDS011;3229;42.674;23.282;2023-11-19T03:15:16;2.70;;;2.50;;
6392;SDS011;3229;42.674;23.282;2023-11-19T03:17:43;2.63;;;2.43;;
6392;SDS011;3229;42.674;23.282;2023-11-19T03:20:11;2.83;;;2.63;;
6392;SDS011;3229;42.674;23.282;2023-11-19T03:22:40;2.53;;;2.33;;
6392;SDS011;3229;42.674;23.282;2023-11-19T03:25:09;2.60;;;2.40;;
6392;SDS011;3229;42.674;23.282;2023-11-19T03:27:36;2.73;;;2.53;;
6392;SDS011;3229;42.674;23.282;2023-11-19T03:30:04;3.07;;;2.87;;
6392;SDS011;3229;42.674;23.282;2023-11-19T03:32:31;2.97;;;2.77;;
6392;SDS011;3229;42.674;23.282;2023-11-19T03:34:59;2.43;;;2.23;;
6392;SDS011;3229;42.674;23.282;2023-11-19T03:37:28;2.47;;;2.27;;
6392;SDS011;3229;42.674;23.282;2023-11-19T03:39:54;2.37;;;2.20;;
6392;SDS011;3229;42.674;23.282;2023-11-19T03:42:24;2.70;;;2.50;;
6392;SDS011;3229;42.674;23.282;2023-11-19T03:44:51;2.60;;;2.50;;
6392;SDS011;3229;42.674;23.282;2023-11-19T03:47:18;2.60;;;2.40;;
6392;SDS011;3229;42.674;23.282;2023-11-19T03:49:46;2.77;;;2.30;;
6392;SDS011;3229;42.674;23.282;2023-11-19T03:52:14;2.97;;;2.77;;
6392;SDS011;3229;42.674;23.282;2023-11-19T03:54:42;2.87;;;2.60;;
6392;SDS011;3229;42.674;23.282;2023-11-19T03:57:09;2.57;;;2.37;;
6392;SDS011;3229;42.674;23.282;2023-11-19T03:59:37;3.27;;;2.97;;
6392;SDS011;3229;42.674;23.282;2023-11-19T04:02:04;2.73;;;2.50;;
6392;SDS011;3229;42.674;23.282;2023-11-19T04:04:31;2.73;;;2.53;;
6392;SDS011;3229;42.674;23.282;2023-11-19T04:06:58;3.53;;;2.80;;
6392;SDS011;3229;42.674;23.282;2023-11-19T04:09:26;2.63;;;2.50;;
6392;SDS011;3229;42.674;23.282;2023-11-19T04:11:54;2.47;;;2.30;;
6392;SDS011;3229;42.674;23.282;2023-11-19T04:14:20;3.30;;;2.90;;
6392;SDS011;3229;42.674;23.282;2023-11-19T04:16:47;3.10;;;2.80;;
6392;SDS011;3229;42.674;23.282;2023-11-19T04:19:14;3.00;;;2.77;;
6392;SDS011;3229;42.674;23.282;2023-11-19T04:21:41;2.80;;;2.47;;
6392;SDS011;3229;42.674;23.282;2023-11-19T04:24:08;2.47;;;2.27;;
6392;SDS011;3229;42.674;23.282;2023-11-19T04:26:39;2.80;;;2.60;;
6392;SDS011;3229;42.674;23.282;2023-11-19T04:29:08;2.73;;;2.53;;
6392;SDS011;3229;42.674;23.282;2023-11-19T04:31:36;4.57;;;2.70;;
6392;SDS011;3229;42.674;23.282;2023-11-19T04:34:03;2.63;;;2.40;;
6392;SDS011;3229;42.674;23.282;2023-11-19T04:36:30;2.40;;;2.30;;
6392;SDS011;3229;42.674;23.282;2023-11-19T04:38:56;3.00;;;2.80;;
6392;SDS011;3229;42.674;23.282;2023-11-19T04:41:24;2.20;;;2.10;;
6392;SDS011;3229;42.674;23.282;2023-11-19T04:43:52;2.60;;;2.40;;
6392;SDS011;3229;42.674;23.282;2023-11-19T04:46:20;2.67;;;2.47;;
6392;SDS011;3229;42.674;23.282;2023-11-19T04:48:48;2.73;;;2.50;;
6392;SDS011;3229;42.674;23.282;2023-11-19T04:51:15;3.03;;;2.77;;
6392;SDS011;3229;42.674;23.282;2023-11-19T04:53:42;2.83;;;2.63;;
6392;SDS011;3229;42.674;23.282;2023-11-19T04:56:09;5.70;;;2.73;;
6392;SDS011;3229;42.674;23.282;2023-11-19T04:58:36;3.70;;;2.63;;
6392;SDS011;3229;42.674;23.282;2023-11-19T05:01:03;2.80;;;2.60;;
6392;SDS011;3229;42.674;23.282;2023-11-19T05:03:32;3.13;;;2.70;;
6392;SDS011;3229;42.674;23.282;2023-11-19T05:05:59;2.93;;;2.30;;
6392;SDS011;3229;42.674;23.282;2023-11-19T05:08:26;2.40;;;2.20;;
6392;SDS011;3229;42.674;23.282;2023-11-19T05:10:52;2.80;;;2.60;;
6392;SDS011;3229;42.674;23.282;2023-11-19T05:13:19;2.60;;;2.40;;
6392;SDS011;3229;42.674;23.282;2023-11-19T05:15:47;2.60;;;2.40;;
6392;SDS011;3229;42.674;23.282;2023-11-19T05:18:14;2.70;;;2.50;;
6392;SDS011;3229;42.674;23.282;2023-11-19T05:20:42;2.90;;;2.60;;
6392;SDS011;3229;42.674;23.282;2023-11-19T05:23:08;2.50;;;2.20;;
6392;SDS011;3229;42.674;23.282;2023-11-19T05:25:36;2.97;;;2.73;;
6392;SDS011;3229;42.674;23.282;2023-11-19T05:28:03;2.57;;;2.37;;
6392;SDS011;3229;42.674;23.282;2023-11-19T05:30:30;2.50;;;2.40;;
6392;SDS011;3229;42.674;23.282;2023-11-19T05:32:57;3.10;;;2.40;;
6392;SDS011;3229;42.674;23.282;2023-11-19T05:35:23;3.40;;;3.00;;
6392;SDS011;3229;42.674;23.282;2023-11-19T05:37:51;2.80;;;2.60;;
6392;SDS011;3229;42.674;23.282;2023-11-19T05:40:18;2.50;;;2.30;;
6392;SDS011;3229;42.674;23.282;2023-11-19T05:42:45;3.10;;;2.50;;
6392;SDS011;3229;42.674;23.282;2023-11-19T05:45:12;2.83;;;2.50;;
6392;SDS011;3229;42.674;23.282;2023-11-19T05:47:40;2.70;;;2.50;;
6392;SDS011;3229;42.674;23.282;2023-11-19T05:50:08;2.80;;;2.60;;
6392;SDS011;3229;42.674;23.282;2023-11-19T05:52:35;3.10;;;2.77;;
6392;SDS011;3229;42.674;23.282;2023-11-19T05:55:04;3.00;;;2.80;;
6392;SDS011;3229;42.674;23.282;2023-11-19T05:57:34;2.87;;;2.67;;
6392;SDS011;3229;42.674;23.282;2023-11-19T06:00:01;3.10;;;2.57;;
6392;SDS011;3229;42.674;23.282;2023-11-19T06:02:32;3.27;;;2.97;;
6392;SDS011;3229;42.674;23.282;2023-11-19T06:04:59;3.77;;;2.63;;
6392;SDS011;3229;42.674;23.282;2023-11-19T06:07:25;4.37;;;3.13;;
6392;SDS011;3229;42.674;23.282;2023-11-19T06:09:52;3.10;;;2.80;;
6392;SDS011;3229;42.674;23.282;2023-11-19T06:12:20;3.23;;;2.93;;
6392;SDS011;3229;42.674;23.282;2023-11-19T06:14:47;3.10;;;2.80;;
6392;SDS011;3229;42.674;23.282;2023-11-19T06:17:14;3.63;;;3.10;;
6392;SDS011;3229;42.674;23.282;2023-11-19T06:19:40;3.37;;;3.07;;
6392;SDS011;3229;42.674;23.282;2023-11-19T06:22:07;3.00;;;2.73;;
6392;SDS011;3229;42.674;23.282;2023-11-19T06:24:34;3.10;;;2.90;;
6392;SDS011;3229;42.674;23.282;2023-11-19T06:27:01;3.30;;;3.00;;
6392;SDS011;3229;42.674;23.282;2023-11-19T06:29:29;3.30;;;2.80;;
6392;SDS011;3229;42.674;23.282;2023-11-19T06:31:56;3.50;;;3.20;;
6392;SDS011;3229;42.674;23.282;2023-11-19T06:34:23;2.87;;;2.67;;
6392;SDS011;3229;42.674;23.282;2023-11-19T06:36:49;3.13;;;2.80;;
6392;SDS011;3229;42.674;23.282;2023-11-19T06:39:16;2.97;;;2.77;;
6392;SDS011;3229;42.674;23.282;2023-11-19T06:41:46;3.33;;;2.80;;
6392;SDS011;3229;42.674;23.282;2023-11-19T06:44:14;2.73;;;2.53;;
6392;SDS011;3229;42.674;23.282;2023-11-19T06:46:42;3.40;;;3.10;;
6392;SDS011;3229;42.674;23.282;2023-11-19T06:49:08;3.20;;;2.90;;
6392;SDS011;3229;42.674;23.282;2023-11-19T06:51:38;3.37;;;2.87;;
6392;SDS011;3229;42.674;23.282;2023-11-19T06:54:08;3.83;;;3.13;;
6392;SDS011;3229;42.674;23.282;2023-11-19T06:56:34;2.93;;;2.73;;
6392;SDS011;3229;42.674;23.282;2023-11-19T06:59:02;3.03;;;2.83;;
6392;SDS011;3229;42.674;23.282;2023-11-19T07:01:29;3.17;;;2.90;;
6392;SDS011;3229;42.674;23.282;2023-11-19T07:04:02;3.67;;;2.87;;
6392;SDS011;3229;42.674;23.282;2023-11-19T07:06:34;2.90;;;2.70;;
6392;SDS011;3229;42.674;23.282;2023-11-19T07:09:02;3.40;;;3.10;;
6392;SDS011;3229;42.674;23.282;2023-11-19T07:11:35;3.23;;;2.93;;
6392;SDS011;3229;42.674;23.282;2023-11-19T07:14:02;4.07;;;3.00;;
6392;SDS011;3229;42.674;23.282;2023-11-19T07:16:29;5.20;;;3.20;;
6392;SDS011;3229;42.674;23.282;2023-11-19T07:18:56;3.37;;;3.03;;
6392;SDS011;3229;42.674;23.282;2023-11-19T07:21:25;3.27;;;2.83;;
6392;SDS011;3229;42.674;23.282;2023-11-19T07:23:53;3.20;;;2.90;;
6392;SDS011;3229;42.674;23.282;2023-11-19T07:26:20;3.43;;;3.03;;
6392;SDS011;3229;42.674;23.282;2023-11-19T07:28:47;3.60;;;3.30;;
6392;SDS011;3229;42.674;23.282;2023-11-19T07:31:14;6.77;;;3.60;;
6392;SDS011;3229;42.674;23.282;2023-11-19T07:33:43;3.70;;;3.40;;
6392;SDS011;3229;42.674;23.282;2023-11-19T07:36:10;3.60;;;3.30;;
6392;SDS011;3229;42.674;23.282;2023-11-19T07:38:39;2.83;;;2.63;;
6392;SDS011;3229;42.674;23.282;2023-11-19T07:41:06;3.53;;;3.23;;
6392;SDS011;3229;42.674;23.282;2023-11-19T07:43:35;3.40;;;3.10;;
6392;SDS011;3229;42.674;23.282;2023-11-19T07:46:02;3.80;;;3.40;;
6392;SDS011;3229;42.674;23.282;2023-11-19T07:48:29;3.27;;;2.80;;
6392;SDS011;3229;42.674;23.282;2023-11-19T07:50:56;3.70;;;3.30;;
6392;SDS011;3229;42.674;23.282;2023-11-19T07:53:23;3.80;;;3.47;;
6392;SDS011;3229;42.674;23.282;2023-11-19T07:55:51;3.40;;;3.13;;
6392;SDS011;3229;42.674;23.282;2023-11-19T07:58:18;5.00;;;3.50;;
6392;SDS011;3229;42.674;23.282;2023-11-19T08:00:45;3.30;;;2.77;;
6392;SDS011;3229;42.674;23.282;2023-11-19T08:03:12;3.93;;;3.53;;
6392;SDS011;3229;42.674;23.282;2023-11-19T08:05:39;3.63;;;3.30;;
6392;SDS011;3229;42.674;23.282;2023-11-19T08:08:06;4.83;;;3.20;;
6392;SDS011;3229;42.674;23.282;2023-11-19T08:10:32;4.90;;;3.30;;
6392;SDS011;3229;42.674;23.282;2023-11-19T08:13:00;3.90;;;3.60;;
6392;SDS011;3229;42.674;23.282;2023-11-19T08:15:27;3.67;;;3.10;;
6392;SDS011;3229;42.674;23.282;2023-11-19T08:17:54;3.30;;;3.00;;
6392;SDS011;3229;42.674;23.282;2023-11-19T08:20:21;3.80;;;3.47;;
6392;SDS011;3229;42.674;23.282;2023-11-19T08:22:48;4.97;;;3.40;;
6392;SDS011;3229;42.674;23.282;2023-11-19T08:25:15;4.13;;;3.60;;
6392;SDS011;3229;42.674;23.282;2023-11-19T08:27:42;3.70;;;3.03;;
6392;SDS011;3229;42.674;23.282;2023-11-19T08:30:11;3.37;;;3.07;;
6392;SDS011;3229;42.674;23.282;2023-11-19T08:32:39;6.10;;;3.97;;
6392;SDS011;3229;42.674;23.282;2023-11-19T08:35:06;7.10;;;3.53;;
6392;SDS011;3229;42.674;23.282;2023-11-19T08:37:33;4.80;;;3.43;;
6392;SDS011;3229;42.674;23.282;2023-11-19T08:40:01;3.50;;;3.17;;
6392;SDS011;3229;42.674;23.282;2023-11-19T08:42:29;3.47;;;2.97;;
6392;SDS011;3229;42.674;23.282;2023-11-19T08:44:56;3.47;;;2.97;;
6392;SDS011;3229;42.674;23.282;2023-11-19T08:47:24;3.60;;;3.30;;
6392;SDS011;3229;42.674;23.282;2023-11-19T08:49:51;3.63;;;3.10;;
6392;SDS011;3229;42.674;23.282;2023-11-19T08:52:18;3.57;;;3.00;;
6392;SDS011;3229;42.674;23.282;2023-11-19T08:54:45;3.53;;;3.23;;
6392;SDS011;3229;42.674;23.282;2023-11-19T08:57:12;3.40;;;3.07;;
6392;SDS011;3229;42.674;23.282;2023-11-19T08:59:39;3.07;;;2.87;;
6392;SDS011;3229;42.674;23.282;2023-11-19T09:02:06;3.70;;;3.10;;
6392;SDS011;3229;42.674;23.282;2023-11-19T09:04:34;4.50;;;2.80;;
6392;SDS011;3229;42.674;23.282;2023-11-19T09:07:01;5.57;;;4.13;;
6392;SDS011;3229;42.674;23.282;2023-11-19T09:09:28;2.97;;;2.77;;
6392;SDS011;3229;42.674;23.282;2023-11-19T09:11:55;4.43;;;2.93;;
6392;SDS011;3229;42.674;23.282;2023-11-19T09:14:22;3.40;;;3.10;;
6392;SDS011;3229;42.674;23.282;2023-11-19T09:16:51;3.90;;;3.60;;
6392;SDS011;3229;42.674;23.282;2023-11-19T09:19:17;4.03;;;3.50;;
6392;SDS011;3229;42.674;23.282;2023-11-19T09:21:45;3.83;;;3.40;;
6392;SDS011;3229;42.674;23.282;2023-11-19T09:24:14;4.67;;;3.23;;
6392;SDS011;3229;42.674;23.282;2023-11-19T09:26:41;5.00;;;3.00;;
6392;SDS011;3229;42.674;23.282;2023-11-19T09:29:08;3.30;;;3.10;;
6392;SDS011;3229;42.674;23.282;2023-11-19T09:31:35;3.20;;;2.90;;
6392;SDS011;3229;42.674;23.282;2023-11-19T09:34:04;3.20;;;2.97;;
6392;SDS011;3229;42.674;23.282;2023-11-19T09:36:31;3.53;;;3.23;;
6392;SDS011;3229;42.674;23.282;2023-11-19T09:38:59;4.87;;;3.00;;
6392;SDS011;3229;42.674;23.282;2023-11-19T09:41:27;3.53;;;3.23;;
6392;SDS011;3229;42.674;23.282;2023-11-19T09:43:54;3.73;;;3.43;;
6392;SDS011;3229;42.674;23.282;2023-11-19T09:46:21;3.50;;;3.07;;
6392;SDS011;3229;42.674;23.282;2023-11-19T09:48:49;3.43;;;3.13;;
6392;SDS011;3229;42.674;23.282;2023-11-19T09:51:20;3.00;;;2.70;;
6392;SDS011;3229;42.674;23.282;2023-11-19T09:53:47;3.87;;;3.30;;
6392;SDS011;3229;42.674;23.282;2023-11-19T09:56:16;3.63;;;3.30;;
6392;SDS011;3229;42.674;23.282;2023-11-19T09:58:43;3.83;;;3.03;;
6392;SDS011;3229;42.674;23.282;2023-11-19T10:01:09;3.47;;;3.17;;
6392;SDS011;3229;42.674;23.282;2023-11-19T10:03:37;3.97;;;3.13;;
6392;SDS011;3229;42.674;23.282;2023-11-19T10:06:06;3.17;;;2.97;;
6392;SDS011;3229;42.674;23.282;2023-11-19T10:08:34;4.17;;;3.40;;
6392;SDS011;3229;42.674;23.282;2023-11-19T10:11:04;4.53;;;3.87;;
6392;SDS011;3229;42.674;23.282;2023-11-19T10:13:33;3.53;;;3.23;;
6392;SDS011;3229;42.674;23.282;2023-11-19T10:16:03;6.93;;;3.23;;
6392;SDS011;3229;42.674;23.282;2023-11-19T10:18:33;3.50;;;2.80;;
6392;SDS011;3229;42.674;23.282;2023-11-19T10:21:03;3.63;;;2.97;;
6392;SDS011;3229;42.674;23.282;2023-11-19T10:23:47;3.63;;;3.20;;
6392;SDS011;3229;42.674;23.282;2023-11-19T10:26:14;2.97;;;2.70;;
6392;SDS011;3229;42.674;23.282;2023-11-19T10:28:43;2.97;;;2.77;;
6392;SDS011;3229;42.674;23.282;2023-11-19T10:31:15;2.90;;;2.60;;
6392;SDS011;3229;42.674;23.282;2023-11-19T10:33:42;3.30;;;3.00;;
6392;SDS011;3229;42.674;23.282;2023-11-19T10:36:10;2.63;;;2.43;;
6392;SDS011;3229;42.674;23.282;2023-11-19T10:38:38;3.53;;;3.10;;
6392;SDS011;3229;42.674;23.282;2023-11-19T10:41:05;4.07;;;2.77;;
6392;SDS011;3229;42.674;23.282;2023-11-19T10:43:43;3.03;;;2.73;;
6392;SDS011;3229;42.674;23.282;2023-11-19T10:46:11;2.70;;;2.50;;
6392;SDS011;3229;42.674;23.282;2023-11-19T10:48:38;3.20;;;2.90;;
6392;SDS011;3229;42.674;23.282;2023-11-19T10:51:07;6.50;;;3.03;;
6392;SDS011;3229;42.674;23.282;2023-11-19T10:53:36;6.10;;;3.53;;
6392;SDS011;3229;42.674;23.282;2023-11-19T10:56:05;3.97;;;2.77;;
6392;SDS011;3229;42.674;23.282;2023-11-19T10:58:37;3.10;;;2.60;;
6392;SDS011;3229;42.674;23.282;2023-11-19T11:01:13;2.80;;;2.60;;
6392;SDS011;3229;42.674;23.282;2023-11-19T11:03:43;2.90;;;2.70;;
6392;SDS011;3229;42.674;23.282;2023-11-19T11:06:11;3.63;;;2.90;;
6392;SDS011;3229;42.674;23.282;2023-11-19T11:08:39;2.90;;;2.70;;
6392;SDS011;3229;42.674;23.282;2023-11-19T11:11:07;3.53;;;3.17;;
6392;SDS011;3229;42.674;23.282;2023-11-19T11:13:35;2.77;;;2.57;;
6392;SDS011;3229;42.674;23.282;2023-11-19T11:16:06;3.70;;;2.47;;
6392;SDS011;3229;42.674;23.282;2023-11-19T11:18:35;2.90;;;2.70;;
6392;SDS011;3229;42.674;23.282;2023-11-19T11:21:04;3.10;;;2.90;;
6392;SDS011;3229;42.674;23.282;2023-11-19T11:23:46;3.30;;;3.10;;
6392;SDS011;3229;42.674;23.282;2023-11-19T11:26:32;3.67;;;3.10;;
6392;SDS011;3229;42.674;23.282;2023-11-19T11:29:21;3.10;;;2.90;;
6392;SDS011;3229;42.674;23.282;2023-11-19T11:31:59;2.60;;;2.40;;
6392;SDS011;3229;42.674;23.282;2023-11-19T11:34:41;2.67;;;2.47;;
6392;SDS011;3229;42.674;23.282;2023-11-19T11:37:26;3.83;;;2.70;;
6392;SDS011;3229;42.674;23.282;2023-11-19T11:40:00;2.97;;;2.77;;
6392;SDS011;3229;42.674;23.282;2023-11-19T11:42:31;3.20;;;2.90;;
6392;SDS011;3229;42.674;23.282;2023-11-19T11:45:01;3.10;;;2.90;;
6392;SDS011;3229;42.674;23.282;2023-11-19T11:50:50;3.60;;;2.53;;
6392;SDS011;3229;42.674;23.282;2023-11-19T11:53:19;2.50;;;2.30;;
6392;SDS011;3229;42.674;23.282;2023-11-19T11:55:57;4.33;;;2.87;;
6392;SDS011;3229;42.674;23.282;2023-11-19T11:58:29;3.23;;;2.90;;
6392;SDS011;3229;42.674;23.282;2023-11-19T12:01:04;2.80;;;2.60;;
6392;SDS011;3229;42.674;23.282;2023-11-19T12:03:34;2.63;;;2.43;;
6392;SDS011;3229;42.674;23.282;2023-11-19T12:06:05;4.07;;;2.97;;
6392;SDS011;3229;42.674;23.282;2023-11-19T12:08:33;3.63;;;2.73;;
6392;SDS011;3229;42.674;23.282;2023-11-19T12:11:01;3.00;;;2.73;;
6392;SDS011;3229;42.674;23.282;2023-11-19T12:13:43;3.00;;;2.70;;
6392;SDS011;3229;42.674;23.282;2023-11-19T12:16:14;2.60;;;2.40;;
6392;SDS011;3229;42.674;23.282;2023-11-19T12:18:41;2.60;;;2.40;;
6392;SDS011;3229;42.674;23.282;2023-11-19T12:21:09;2.50;;;2.40;;
6392;SDS011;3229;42.674;23.282;2023-11-19T12:23:43;2.73;;;2.50;;
6392;SDS011;3229;42.674;23.282;2023-11-19T12:28:59;2.57;;;2.37;;
6392;SDS011;3229;42.674;23.282;2023-11-19T12:31:29;2.53;;;2.33;;
6392;SDS011;3229;42.674;23.282;2023-11-19T12:33:56;2.40;;;2.20;;
6392;SDS011;3229;42.674;23.282;2023-11-19T12:36:24;2.53;;;2.33;;
6392;SDS011;3229;42.674;23.282;2023-11-19T12:38:51;2.67;;;2.47;;
6392;SDS011;3229;42.674;23.282;2023-11-19T12:41:18;2.50;;;2.30;;
6392;SDS011;3229;42.674;23.282;2023-11-19T12:43:48;2.77;;;2.57;;
6392;SDS011;3229;42.674;23.282;2023-11-19T12:46:19;3.23;;;2.70;;
6392;SDS011;3229;42.674;23.282;2023-11-19T12:48:47;3.53;;;3.07;;
6392;SDS011;3229;42.674;23.282;2023-11-19T12:51:14;3.10;;;2.87;;
6392;SDS011;3229;42.674;23.282;2023-11-19T12:53:49;3.20;;;2.77;;
6392;SDS011;3229;42.674;23.282;2023-11-19T12:56:19;3.37;;;2.90;;
6392;SDS011;3229;42.674;23.282;2023-11-19T12:58:46;3.53;;;3.23;;
6392;SDS011;3229;42.674;23.282;2023-11-19T13:01:15;4.30;;;3.57;;
6392;SDS011;3229;42.674;23.282;2023-11-19T13:03:46;5.47;;;4.63;;
6392;SDS011;3229;42.674;23.282;2023-11-19T13:06:14;6.90;;;4.93;;
6392;SDS011;3229;42.674;23.282;2023-11-19T13:08:43;7.80;;;4.33;;
6392;SDS011;3229;42.674;23.282;2023-11-19T13:11:13;5.60;;;4.17;;
6392;SDS011;3229;42.674;23.282;2023-11-19T13:13:55;5.30;;;4.63;;
6392;SDS011;3229;42.674;23.282;2023-11-19T13:16:23;4.20;;;3.80;;
6392;SDS011;3229;42.674;23.282;2023-11-19T13:18:50;4.60;;;3.80;;
6392;SDS011;3229;42.674;23.282;2023-11-19T13:21:17;4.90;;;3.37;;
6392;SDS011;3229;42.674;23.282;2023-11-19T13:23:45;4.37;;;3.40;;
6392;SDS011;3229;42.674;23.282;2023-11-19T13:26:13;5.43;;;3.53;;
6392;SDS011;3229;42.674;23.282;2023-11-19T13:28:40;2.53;;;2.33;;
6392;SDS011;3229;42.674;23.282;2023-11-19T13:31:07;2.90;;;2.60;;
6392;SDS011;3229;42.674;23.282;2023-11-19T13:33:33;3.30;;;2.20;;
6392;SDS011;3229;42.674;23.282;2023-11-19T13:36:01;2.70;;;2.50;;
6392;SDS011;3229;42.674;23.282;2023-11-19T13:38:31;2.60;;;2.40;;
6392;SDS011;3229;42.674;23.282;2023-11-19T13:40:58;2.80;;;2.50;;
6392;SDS011;3229;42.674;23.282;2023-11-19T13:43:26;2.80;;;2.50;;
6392;SDS011;3229;42.674;23.282;2023-11-19T13:45:54;4.07;;;2.40;;
6392;SDS011;3229;42.674;23.282;2023-11-19T13:48:21;2.80;;;2.50;;
6392;SDS011;3229;42.674;23.282;2023-11-19T13:50:48;2.77;;;2.57;;
6392;SDS011;3229;42.674;23.282;2023-11-19T13:53:15;3.50;;;2.80;;
6392;SDS011;3229;42.674;23.282;2023-11-19T13:55:41;2.60;;;2.40;;
6392;SDS011;3229;42.674;23.282;2023-11-19T13:58:08;2.43;;;2.23;;
6392;SDS011;3229;42.674;23.282;2023-11-19T14:00:37;2.70;;;2.50;;
6392;SDS011;3229;42.674;23.282;2023-11-19T14:03:04;3.83;;;2.70;;
6392;SDS011;3229;42.674;23.282;2023-11-19T14:05:31;3.00;;;2.70;;
6392;SDS011;3229;42.674;23.282;2023-11-19T14:07:58;3.27;;;2.77;;
6392;SDS011;3229;42.674;23.282;2023-11-19T14:10:26;3.23;;;2.93;;
6392;SDS011;3229;42.674;23.282;2023-11-19T14:12:53;3.87;;;3.40;;
6392;SDS011;3229;42.674;23.282;2023-11-19T14:15:20;6.53;;;3.53;;
6392;SDS011;3229;42.674;23.282;2023-11-19T14:17:48;3.03;;;2.70;;
6392;SDS011;3229;42.674;23.282;2023-11-19T14:20:15;3.47;;;2.90;;
6392;SDS011;3229;42.674;23.282;2023-11-19T14:22:42;3.23;;;2.93;;
6392;SDS011;3229;42.674;23.282;2023-11-19T14:25:11;3.13;;;2.50;;
6392;SDS011;3229;42.674;23.282;2023-11-19T14:27:38;4.90;;;3.13;;
6392;SDS011;3229;42.674;23.282;2023-11-19T14:30:06;3.70;;;3.40;;
6392;SDS011;3229;42.674;23.282;2023-11-19T14:32:36;5.50;;;3.73;;
6392;SDS011;3229;42.674;23.282;2023-11-19T14:35:05;3.43;;;3.07;;
6392;SDS011;3229;42.674;23.282;2023-11-19T14:37:32;5.10;;;3.57;;
6392;SDS011;3229;42.674;23.282;2023-11-19T14:39:59;4.60;;;3.67;;
6392;SDS011;3229;42.674;23.282;2023-11-19T14:42:30;5.23;;;3.77;;
6392;SDS011;3229;42.674;23.282;2023-11-19T14:44:57;3.97;;;3.53;;
6392;SDS011;3229;42.674;23.282;2023-11-19T14:47:24;6.17;;;4.77;;
6392;SDS011;3229;42.674;23.282;2023-11-19T14:49:51;8.37;;;6.33;;
6392;SDS011;3229;42.674;23.282;2023-11-19T14:52:19;11.30;;;7.53;;
6392;SDS011;3229;42.674;23.282;2023-11-19T14:54:46;10.13;;;7.23;;
6392;SDS011;3229;42.674;23.282;2023-11-19T14:57:13;15.03;;;8.73;;
6392;SDS011;3229;42.674;23.282;2023-11-19T14:59:40;11.47;;;7.73;;
6392;SDS011;3229;42.674;23.282;2023-11-19T15:02:07;9.97;;;7.17;;
6392;SDS011;3229;42.674;23.282;2023-11-19T15:04:34;9.20;;;6.93;;
6392;SDS011;3229;42.674;23.282;2023-11-19T15:07:01;10.47;;;6.57;;
6392;SDS011;3229;42.674;23.282;2023-11-19T15:09:30;9.73;;;6.40;;
6392;SDS011;3229;42.674;23.282;2023-11-19T15:11:58;9.57;;;6.20;;
6392;SDS011;3229;42.674;23.282;2023-11-19T15:14:27;10.60;;;6.73;;
6392;SDS011;3229;42.674;23.282;2023-11-19T15:16:54;12.13;;;7.90;;